sensor_id;sensor_type;location;lat;lon;timestamp;P1;durP1;ratioP1;P2;durP2;ratioP2
70138;SDS011;57507;43.056;0.150;2022-10-19T00:01:44;8.07;;;1.90;;
70138;SDS011;57507;43.056;0.150;2022-10-19T00:04:10;9.88;;;1.75;;
70138;SDS011;57507;43.056;0.150;2022-10-19T00:06:37;10.23;;;1.65;;
70138;SDS011;57507;43.056;0.150;2022-10-19T00:09:07;7.20;;;1.50;;
70138;SDS011;57507;43.056;0.150;2022-10-19T00:11:34;8.07;;;1.55;;
70138;SDS011;57507;43.056;0.150;2022-10-19T00:14:01;7.10;;;1.65;;
70138;SDS011;57507;43.056;0.150;2022-10-19T00:16:28;9.10;;;1.90;;
70138;SDS011;57507;43.056;0.150;2022-10-19T00:18:55;11.18;;;1.50;;
70138;SDS011;57507;43.056;0.150;2022-10-19T00:21:22;7.07;;;1.60;;
70138;SDS011;57507;43.056;0.150;2022-10-19T00:23:48;9.05;;;1.98;;
70138;SDS011;57507;43.056;0.150;2022-10-19T00:26:14;9.48;;;1.35;;
70138;SDS011;57507;43.056;0.150;2022-10-19T00:28:40;3.90;;;1.50;;
70138;SDS011;57507;43.056;0.150;2022-10-19T00:31:08;8.00;;;1.20;;
70138;SDS011;57507;43.056;0.150;2022-10-19T00:33:34;8.55;;;2.28;;
70138;SDS011;57507;43.056;0.150;2022-10-19T00:36:00;9.90;;;1.98;;
70138;SDS011;57507;43.056;0.150;2022-10-19T00:38:27;12.93;;;1.77;;
70138;SDS011;57507;43.056;0.150;2022-10-19T00:40:53;7.45;;;1.52;;
70138;SDS011;57507;43.056;0.150;2022-10-19T00:43:20;7.45;;;1.92;;
70138;SDS011;57507;43.056;0.150;2022-10-19T00:45:47;6.00;;;1.15;;
70138;SDS011;57507;43.056;0.150;2022-10-19T00:48:14;7.28;;;1.40;;
70138;SDS011;57507;43.056;0.150;2022-10-19T00:50:41;7.70;;;1.98;;
70138;SDS011;57507;43.056;0.150;2022-10-19T00:53:08;8.10;;;2.20;;
70138;SDS011;57507;43.056;0.150;2022-10-19T00:55:34;10.90;;;1.77;;
70138;SDS011;57507;43.056;0.150;2022-10-19T00:58:01;11.48;;;1.67;;
70138;SDS011;57507;43.056;0.150;2022-10-19T01:00:27;12.82;;;1.38;;
70138;SDS011;57507;43.056;0.150;2022-10-19T01:02:54;8.43;;;1.80;;
70138;SDS011;57507;43.056;0.150;2022-10-19T01:05:20;10.25;;;1.70;;
70138;SDS011;57507;43.056;0.150;2022-10-19T01:07:47;10.18;;;1.98;;
70138;SDS011;57507;43.056;0.150;2022-10-19T01:10:13;7.60;;;1.88;;
70138;SDS011;57507;43.056;0.150;2022-10-19T01:17:38;8.82;;;1.83;;
70138;SDS011;57507;43.056;0.150;2022-10-19T01:25:21;14.60;;;2.85;;
70138;SDS011;57507;43.056;0.150;2022-10-19T01:30:44;13.32;;;2.17;;
70138;SDS011;57507;43.056;0.150;2022-10-19T01:35:42;8.38;;;1.90;;
70138;SDS011;57507;43.056;0.150;2022-10-19T01:38:31;7.88;;;1.88;;
70138;SDS011;57507;43.056;0.150;2022-10-19T01:45:51;7.93;;;1.70;;
70138;SDS011;57507;43.056;0.150;2022-10-19T01:48:26;13.98;;;2.92;;
70138;SDS011;57507;43.056;0.150;2022-10-19T01:50:56;9.93;;;1.80;;
70138;SDS011;57507;43.056;0.150;2022-10-19T01:53:25;7.32;;;1.60;;
70138;SDS011;57507;43.056;0.150;2022-10-19T01:55:52;4.85;;;1.67;;
70138;SDS011;57507;43.056;0.150;2022-10-19T01:58:26;9.73;;;1.80;;
70138;SDS011;57507;43.056;0.150;2022-10-19T02:00:53;9.93;;;1.92;;
70138;SDS011;57507;43.056;0.150;2022-10-19T02:03:21;13.10;;;2.38;;
70138;SDS011;57507;43.056;0.150;2022-10-19T02:05:48;15.27;;;2.15;;
70138;SDS011;57507;43.056;0.150;2022-10-19T02:08:26;9.15;;;2.15;;
70138;SDS011;57507;43.056;0.150;2022-10-19T02:10:54;12.55;;;2.22;;
70138;SDS011;57507;43.056;0.150;2022-10-19T02:13:21;8.15;;;1.83;;
70138;SDS011;57507;43.056;0.150;2022-10-19T02:15:49;5.88;;;1.50;;
70138;SDS011;57507;43.056;0.150;2022-10-19T02:18:16;13.18;;;2.33;;
70138;SDS011;57507;43.056;0.150;2022-10-19T02:20:43;8.43;;;1.98;;
70138;SDS011;57507;43.056;0.150;2022-10-19T02:23:10;8.75;;;2.38;;
70138;SDS011;57507;43.056;0.150;2022-10-19T02:25:36;10.48;;;2.42;;
70138;SDS011;57507;43.056;0.150;2022-10-19T02:28:02;8.82;;;1.95;;
70138;SDS011;57507;43.056;0.150;2022-10-19T02:30:29;11.68;;;2.60;;
70138;SDS011;57507;43.056;0.150;2022-10-19T02:32:55;10.52;;;2.25;;
70138;SDS011;57507;43.056;0.150;2022-10-19T02:35:21;10.75;;;2.65;;
70138;SDS011;57507;43.056;0.150;2022-10-19T02:37:47;8.95;;;2.03;;
70138;SDS011;57507;43.056;0.150;2022-10-19T02:40:13;12.45;;;1.80;;
70138;SDS011;57507;43.056;0.150;2022-10-19T02:42:51;18.55;;;1.92;;
70138;SDS011;57507;43.056;0.150;2022-10-19T02:45:29;11.18;;;2.45;;
70138;SDS011;57507;43.056;0.150;2022-10-19T02:48:17;12.48;;;2.80;;
70138;SDS011;57507;43.056;0.150;2022-10-19T02:50:44;14.40;;;1.90;;
70138;SDS011;57507;43.056;0.150;2022-10-19T02:53:14;11.07;;;2.65;;
70138;SDS011;57507;43.056;0.150;2022-10-19T02:55:40;10.75;;;2.10;;
70138;SDS011;57507;43.056;0.150;2022-10-19T02:58:07;10.75;;;2.20;;
70138;SDS011;57507;43.056;0.150;2022-10-19T03:00:33;15.38;;;2.15;;
70138;SDS011;57507;43.056;0.150;2022-10-19T03:02:59;13.10;;;1.95;;
70138;SDS011;57507;43.056;0.150;2022-10-19T03:05:27;13.45;;;2.60;;
70138;SDS011;57507;43.056;0.150;2022-10-19T03:07:53;10.55;;;2.20;;
70138;SDS011;57507;43.056;0.150;2022-10-19T03:10:19;8.25;;;2.00;;
70138;SDS011;57507;43.056;0.150;2022-10-19T03:12:45;10.70;;;2.08;;
70138;SDS011;57507;43.056;0.150;2022-10-19T03:15:14;7.60;;;1.60;;
70138;SDS011;57507;43.056;0.150;2022-10-19T03:17:41;10.02;;;1.92;;
70138;SDS011;57507;43.056;0.150;2022-10-19T03:20:07;16.27;;;3.13;;
70138;SDS011;57507;43.056;0.150;2022-10-19T03:22:33;7.30;;;2.20;;
70138;SDS011;57507;43.056;0.150;2022-10-19T03:24:59;7.47;;;2.17;;
70138;SDS011;57507;43.056;0.150;2022-10-19T03:27:25;9.43;;;1.88;;
70138;SDS011;57507;43.056;0.150;2022-10-19T03:29:51;7.43;;;1.80;;
70138;SDS011;57507;43.056;0.150;2022-10-19T03:32:17;6.70;;;1.73;;
70138;SDS011;57507;43.056;0.150;2022-10-19T03:34:43;11.07;;;2.25;;
70138;SDS011;57507;43.056;0.150;2022-10-19T03:37:09;9.05;;;1.85;;
70138;SDS011;57507;43.056;0.150;2022-10-19T03:39:37;9.95;;;2.03;;
70138;SDS011;57507;43.056;0.150;2022-10-19T03:42:03;6.05;;;1.90;;
70138;SDS011;57507;43.056;0.150;2022-10-19T03:44:29;12.55;;;2.70;;
70138;SDS011;57507;43.056;0.150;2022-10-19T03:46:55;14.27;;;2.10;;
70138;SDS011;57507;43.056;0.150;2022-10-19T03:49:21;9.65;;;2.10;;
70138;SDS011;57507;43.056;0.150;2022-10-19T03:51:47;10.07;;;2.38;;
70138;SDS011;57507;43.056;0.150;2022-10-19T03:54:14;7.40;;;2.05;;
70138;SDS011;57507;43.056;0.150;2022-10-19T03:56:40;11.02;;;1.65;;
70138;SDS011;57507;43.056;0.150;2022-10-19T03:59:07;12.60;;;1.63;;
70138;SDS011;57507;43.056;0.150;2022-10-19T04:01:37;12.18;;;1.85;;
70138;SDS011;57507;43.056;0.150;2022-10-19T04:04:04;5.85;;;1.48;;
70138;SDS011;57507;43.056;0.150;2022-10-19T04:06:32;11.02;;;2.30;;
70138;SDS011;57507;43.056;0.150;2022-10-19T04:08:58;12.02;;;1.88;;
70138;SDS011;57507;43.056;0.150;2022-10-19T04:11:26;9.25;;;1.65;;
70138;SDS011;57507;43.056;0.150;2022-10-19T04:13:53;10.77;;;2.00;;
70138;SDS011;57507;43.056;0.150;2022-10-19T04:16:19;9.65;;;1.80;;
70138;SDS011;57507;43.056;0.150;2022-10-19T04:18:45;9.48;;;1.45;;
70138;SDS011;57507;43.056;0.150;2022-10-19T04:21:21;8.02;;;1.70;;
70138;SDS011;57507;43.056;0.150;2022-10-19T04:23:48;7.60;;;1.15;;
70138;SDS011;57507;43.056;0.150;2022-10-19T04:26:14;10.45;;;1.90;;
70138;SDS011;57507;43.056;0.150;2022-10-19T04:28:40;9.90;;;1.48;;
70138;SDS011;57507;43.056;0.150;2022-10-19T04:31:06;6.38;;;1.40;;
70138;SDS011;57507;43.056;0.150;2022-10-19T04:33:33;6.00;;;1.40;;
70138;SDS011;57507;43.056;0.150;2022-10-19T04:36:00;10.20;;;1.88;;
70138;SDS011;57507;43.056;0.150;2022-10-19T04:38:26;10.75;;;1.60;;
70138;SDS011;57507;43.056;0.150;2022-10-19T04:40:53;5.97;;;1.73;;
70138;SDS011;57507;43.056;0.150;2022-10-19T04:43:20;8.85;;;1.45;;
70138;SDS011;57507;43.056;0.150;2022-10-19T04:45:46;3.90;;;1.23;;
70138;SDS011;57507;43.056;0.150;2022-10-19T04:48:12;6.72;;;1.33;;
70138;SDS011;57507;43.056;0.150;2022-10-19T04:50:38;7.70;;;1.80;;
70138;SDS011;57507;43.056;0.150;2022-10-19T04:53:04;7.47;;;1.75;;
70138;SDS011;57507;43.056;0.150;2022-10-19T04:55:30;6.10;;;1.73;;
70138;SDS011;57507;43.056;0.150;2022-10-19T04:57:56;9.98;;;1.85;;
70138;SDS011;57507;43.056;0.150;2022-10-19T05:00:22;11.48;;;2.00;;
70138;SDS011;57507;43.056;0.150;2022-10-19T05:02:48;7.28;;;1.58;;
70138;SDS011;57507;43.056;0.150;2022-10-19T05:05:14;9.05;;;1.60;;
70138;SDS011;57507;43.056;0.150;2022-10-19T05:07:40;7.70;;;1.42;;
70138;SDS011;57507;43.056;0.150;2022-10-19T05:10:07;4.05;;;1.25;;
70138;SDS011;57507;43.056;0.150;2022-10-19T05:12:34;3.97;;;1.00;;
70138;SDS011;57507;43.056;0.150;2022-10-19T05:15:00;8.60;;;1.40;;
70138;SDS011;57507;43.056;0.150;2022-10-19T05:17:28;7.63;;;1.45;;
70138;SDS011;57507;43.056;0.150;2022-10-19T05:19:55;10.35;;;1.63;;
70138;SDS011;57507;43.056;0.150;2022-10-19T05:22:21;12.95;;;1.70;;
70138;SDS011;57507;43.056;0.150;2022-10-19T05:24:47;6.57;;;1.27;;
70138;SDS011;57507;43.056;0.150;2022-10-19T05:27:13;7.22;;;1.35;;
70138;SDS011;57507;43.056;0.150;2022-10-19T05:29:39;7.57;;;1.80;;
70138;SDS011;57507;43.056;0.150;2022-10-19T05:32:05;5.05;;;1.25;;
70138;SDS011;57507;43.056;0.150;2022-10-19T05:34:31;8.57;;;1.73;;
70138;SDS011;57507;43.056;0.150;2022-10-19T05:36:57;4.88;;;1.15;;
70138;SDS011;57507;43.056;0.150;2022-10-19T05:39:23;6.68;;;1.80;;
70138;SDS011;57507;43.056;0.150;2022-10-19T05:41:49;10.20;;;1.33;;
70138;SDS011;57507;43.056;0.150;2022-10-19T05:44:16;4.45;;;1.10;;
70138;SDS011;57507;43.056;0.150;2022-10-19T05:46:43;6.35;;;1.45;;
70138;SDS011;57507;43.056;0.150;2022-10-19T05:49:09;9.65;;;1.48;;
70138;SDS011;57507;43.056;0.150;2022-10-19T05:51:36;8.18;;;1.40;;
70138;SDS011;57507;43.056;0.150;2022-10-19T05:54:02;9.18;;;1.50;;
70138;SDS011;57507;43.056;0.150;2022-10-19T05:56:28;4.43;;;1.00;;
70138;SDS011;57507;43.056;0.150;2022-10-19T05:58:55;7.57;;;1.38;;
70138;SDS011;57507;43.056;0.150;2022-10-19T06:01:21;6.13;;;1.60;;
70138;SDS011;57507;43.056;0.150;2022-10-19T06:03:50;8.35;;;1.58;;
70138;SDS011;57507;43.056;0.150;2022-10-19T06:06:16;8.73;;;1.60;;
70138;SDS011;57507;43.056;0.150;2022-10-19T06:08:42;4.85;;;1.10;;
70138;SDS011;57507;43.056;0.150;2022-10-19T06:11:12;8.23;;;1.67;;
70138;SDS011;57507;43.056;0.150;2022-10-19T06:13:38;7.05;;;1.70;;
70138;SDS011;57507;43.056;0.150;2022-10-19T06:16:05;3.90;;;1.30;;
70138;SDS011;57507;43.056;0.150;2022-10-19T06:18:31;11.30;;;1.40;;
70138;SDS011;57507;43.056;0.150;2022-10-19T06:21:04;10.20;;;1.50;;
70138;SDS011;57507;43.056;0.150;2022-10-19T06:23:34;7.13;;;1.73;;
70138;SDS011;57507;43.056;0.150;2022-10-19T06:26:03;8.02;;;1.50;;
70138;SDS011;57507;43.056;0.150;2022-10-19T06:28:29;13.32;;;1.70;;
70138;SDS011;57507;43.056;0.150;2022-10-19T06:30:56;10.05;;;1.75;;
70138;SDS011;57507;43.056;0.150;2022-10-19T06:33:22;9.98;;;1.75;;
70138;SDS011;57507;43.056;0.150;2022-10-19T06:35:48;6.97;;;2.10;;
70138;SDS011;57507;43.056;0.150;2022-10-19T06:38:14;10.52;;;1.70;;
70138;SDS011;57507;43.056;0.150;2022-10-19T06:40:40;10.20;;;1.75;;
70138;SDS011;57507;43.056;0.150;2022-10-19T06:43:07;5.65;;;1.40;;
70138;SDS011;57507;43.056;0.150;2022-10-19T06:45:33;9.93;;;1.80;;
70138;SDS011;57507;43.056;0.150;2022-10-19T06:47:59;5.90;;;1.42;;
70138;SDS011;57507;43.056;0.150;2022-10-19T06:50:25;9.07;;;1.73;;
70138;SDS011;57507;43.056;0.150;2022-10-19T06:52:51;10.30;;;1.80;;
70138;SDS011;57507;43.056;0.150;2022-10-19T06:55:17;8.00;;;1.83;;
70138;SDS011;57507;43.056;0.150;2022-10-19T06:57:43;10.05;;;1.75;;
70138;SDS011;57507;43.056;0.150;2022-10-19T07:00:10;13.48;;;2.35;;
70138;SDS011;57507;43.056;0.150;2022-10-19T07:02:36;8.23;;;1.60;;
70138;SDS011;57507;43.056;0.150;2022-10-19T07:05:02;6.95;;;1.70;;
70138;SDS011;57507;43.056;0.150;2022-10-19T07:07:28;8.13;;;1.50;;
70138;SDS011;57507;43.056;0.150;2022-10-19T07:09:54;13.45;;;2.28;;
70138;SDS011;57507;43.056;0.150;2022-10-19T07:12:20;9.45;;;1.67;;
70138;SDS011;57507;43.056;0.150;2022-10-19T07:14:46;9.82;;;1.95;;
70138;SDS011;57507;43.056;0.150;2022-10-19T07:17:12;9.77;;;1.70;;
70138;SDS011;57507;43.056;0.150;2022-10-19T07:19:38;5.10;;;1.48;;
70138;SDS011;57507;43.056;0.150;2022-10-19T07:22:04;8.18;;;1.40;;
70138;SDS011;57507;43.056;0.150;2022-10-19T07:24:30;12.02;;;2.22;;
70138;SDS011;57507;43.056;0.150;2022-10-19T07:26:56;10.82;;;1.88;;
70138;SDS011;57507;43.056;0.150;2022-10-19T07:29:22;10.02;;;1.80;;
70138;SDS011;57507;43.056;0.150;2022-10-19T07:31:48;12.35;;;2.15;;
70138;SDS011;57507;43.056;0.150;2022-10-19T07:34:14;11.18;;;2.22;;
70138;SDS011;57507;43.056;0.150;2022-10-19T07:36:43;10.32;;;1.77;;
70138;SDS011;57507;43.056;0.150;2022-10-19T07:39:09;9.40;;;1.60;;
70138;SDS011;57507;43.056;0.150;2022-10-19T07:41:36;9.27;;;1.63;;
70138;SDS011;57507;43.056;0.150;2022-10-19T07:44:02;8.05;;;1.63;;
70138;SDS011;57507;43.056;0.150;2022-10-19T07:46:29;7.15;;;1.58;;
70138;SDS011;57507;43.056;0.150;2022-10-19T07:49:01;11.23;;;2.40;;
70138;SDS011;57507;43.056;0.150;2022-10-19T07:51:27;7.38;;;1.70;;
70138;SDS011;57507;43.056;0.150;2022-10-19T07:53:53;12.90;;;1.48;;
70138;SDS011;57507;43.056;0.150;2022-10-19T07:56:22;9.18;;;1.75;;
70138;SDS011;57507;43.056;0.150;2022-10-19T07:58:49;22.65;;;3.45;;
70138;SDS011;57507;43.056;0.150;2022-10-19T08:01:17;15.65;;;2.25;;
70138;SDS011;57507;43.056;0.150;2022-10-19T08:03:43;10.95;;;2.47;;
70138;SDS011;57507;43.056;0.150;2022-10-19T08:06:11;11.43;;;2.10;;
70138;SDS011;57507;43.056;0.150;2022-10-19T08:08:38;13.45;;;1.83;;
70138;SDS011;57507;43.056;0.150;2022-10-19T08:13:33;11.88;;;2.58;;
70138;SDS011;57507;43.056;0.150;2022-10-19T08:15:59;18.15;;;2.35;;
70138;SDS011;57507;43.056;0.150;2022-10-19T08:18:25;11.73;;;2.13;;
70138;SDS011;57507;43.056;0.150;2022-10-19T08:20:51;21.20;;;2.70;;
70138;SDS011;57507;43.056;0.150;2022-10-19T08:23:17;12.77;;;2.33;;
70138;SDS011;57507;43.056;0.150;2022-10-19T08:25:43;13.77;;;2.10;;
70138;SDS011;57507;43.056;0.150;2022-10-19T08:28:09;15.75;;;3.03;;
70138;SDS011;57507;43.056;0.150;2022-10-19T08:30:35;12.63;;;2.38;;
70138;SDS011;57507;43.056;0.150;2022-10-19T08:33:02;13.00;;;1.95;;
70138;SDS011;57507;43.056;0.150;2022-10-19T08:35:31;16.08;;;2.53;;
70138;SDS011;57507;43.056;0.150;2022-10-19T08:37:57;12.32;;;2.72;;
70138;SDS011;57507;43.056;0.150;2022-10-19T08:40:25;10.48;;;2.20;;
70138;SDS011;57507;43.056;0.150;2022-10-19T08:42:52;13.32;;;4.28;;
70138;SDS011;57507;43.056;0.150;2022-10-19T08:45:24;18.00;;;3.05;;
70138;SDS011;57507;43.056;0.150;2022-10-19T08:47:59;12.40;;;2.42;;
70138;SDS011;57507;43.056;0.150;2022-10-19T08:50:33;19.42;;;3.22;;
70138;SDS011;57507;43.056;0.150;2022-10-19T08:53:05;13.25;;;2.50;;
70138;SDS011;57507;43.056;0.150;2022-10-19T09:03:25;12.95;;;2.92;;
70138;SDS011;57507;43.056;0.150;2022-10-19T09:08:22;10.45;;;2.38;;
70138;SDS011;57507;43.056;0.150;2022-10-19T09:10:49;18.75;;;2.95;;
70138;SDS011;57507;43.056;0.150;2022-10-19T09:16:00;18.52;;;2.67;;
70138;SDS011;57507;43.056;0.150;2022-10-19T09:18:28;12.45;;;2.70;;
70138;SDS011;57507;43.056;0.150;2022-10-19T09:20:57;14.50;;;2.67;;
70138;SDS011;57507;43.056;0.150;2022-10-19T09:23:26;13.95;;;2.08;;
70138;SDS011;57507;43.056;0.150;2022-10-19T09:25:53;18.73;;;3.25;;
70138;SDS011;57507;43.056;0.150;2022-10-19T09:30:47;17.80;;;2.50;;
70138;SDS011;57507;43.056;0.150;2022-10-19T09:33:17;13.73;;;1.73;;
70138;SDS011;57507;43.056;0.150;2022-10-19T09:35:44;18.05;;;2.63;;
70138;SDS011;57507;43.056;0.150;2022-10-19T09:38:11;16.10;;;2.85;;
70138;SDS011;57507;43.056;0.150;2022-10-19T09:40:39;14.27;;;2.55;;
70138;SDS011;57507;43.056;0.150;2022-10-19T09:43:05;14.30;;;2.75;;
70138;SDS011;57507;43.056;0.150;2022-10-19T09:50:55;16.42;;;3.33;;
70138;SDS011;57507;43.056;0.150;2022-10-19T09:53:22;19.67;;;3.20;;
70138;SDS011;57507;43.056;0.150;2022-10-19T09:55:52;16.98;;;3.05;;
70138;SDS011;57507;43.056;0.150;2022-10-19T09:58:23;21.05;;;3.63;;
70138;SDS011;57507;43.056;0.150;2022-10-19T10:00:50;15.07;;;2.70;;
70138;SDS011;57507;43.056;0.150;2022-10-19T10:05:48;15.95;;;3.10;;
70138;SDS011;57507;43.056;0.150;2022-10-19T10:08:19;14.73;;;3.25;;
70138;SDS011;57507;43.056;0.150;2022-10-19T10:10:46;13.55;;;3.03;;
70138;SDS011;57507;43.056;0.150;2022-10-19T10:13:18;20.75;;;3.00;;
70138;SDS011;57507;43.056;0.150;2022-10-19T10:15:46;15.77;;;2.88;;
70138;SDS011;57507;43.056;0.150;2022-10-19T10:21:14;19.35;;;3.22;;
70138;SDS011;57507;43.056;0.150;2022-10-19T10:23:45;18.23;;;2.67;;
70138;SDS011;57507;43.056;0.150;2022-10-19T10:26:23;18.80;;;2.70;;
70138;SDS011;57507;43.056;0.150;2022-10-19T10:28:50;21.73;;;3.22;;
70138;SDS011;57507;43.056;0.150;2022-10-19T10:31:23;13.77;;;2.83;;
70138;SDS011;57507;43.056;0.150;2022-10-19T10:33:51;14.70;;;3.00;;
70138;SDS011;57507;43.056;0.150;2022-10-19T10:36:18;9.32;;;2.47;;
70138;SDS011;57507;43.056;0.150;2022-10-19T10:38:49;15.85;;;2.58;;
70138;SDS011;57507;43.056;0.150;2022-10-19T10:41:17;21.17;;;2.70;;
70138;SDS011;57507;43.056;0.150;2022-10-19T10:46:18;17.42;;;2.65;;
70138;SDS011;57507;43.056;0.150;2022-10-19T10:48:50;13.05;;;2.47;;
70138;SDS011;57507;43.056;0.150;2022-10-19T10:51:18;12.43;;;3.00;;
70138;SDS011;57507;43.056;0.150;2022-10-19T10:53:45;17.20;;;2.85;;
70138;SDS011;57507;43.056;0.150;2022-10-19T10:56:25;14.52;;;2.70;;
70138;SDS011;57507;43.056;0.150;2022-10-19T10:58:58;12.90;;;2.45;;
70138;SDS011;57507;43.056;0.150;2022-10-19T11:01:31;12.48;;;2.47;;
70138;SDS011;57507;43.056;0.150;2022-10-19T11:04:07;12.13;;;2.55;;
70138;SDS011;57507;43.056;0.150;2022-10-19T11:06:36;8.55;;;2.45;;
70138;SDS011;57507;43.056;0.150;2022-10-19T11:11:45;20.95;;;2.50;;
70138;SDS011;57507;43.056;0.150;2022-10-19T11:16:44;12.15;;;2.60;;
70138;SDS011;57507;43.056;0.150;2022-10-19T11:19:16;14.30;;;2.45;;
70138;SDS011;57507;43.056;0.150;2022-10-19T11:24:21;9.90;;;1.95;;
70138;SDS011;57507;43.056;0.150;2022-10-19T11:29:24;13.43;;;2.70;;
70138;SDS011;57507;43.056;0.150;2022-10-19T11:31:55;10.63;;;2.33;;
70138;SDS011;57507;43.056;0.150;2022-10-19T11:37:32;14.90;;;2.40;;
70138;SDS011;57507;43.056;0.150;2022-10-19T11:45:22;11.35;;;2.40;;
70138;SDS011;57507;43.056;0.150;2022-10-19T11:55:29;18.02;;;2.58;;
70138;SDS011;57507;43.056;0.150;2022-10-19T12:00:30;14.93;;;3.28;;
70138;SDS011;57507;43.056;0.150;2022-10-19T12:13:13;13.88;;;2.40;;
70138;SDS011;57507;43.056;0.150;2022-10-19T12:15:51;14.23;;;2.45;;
70138;SDS011;57507;43.056;0.150;2022-10-19T12:18:34;13.60;;;3.08;;
70138;SDS011;57507;43.056;0.150;2022-10-19T12:21:02;14.60;;;2.75;;
70138;SDS011;57507;43.056;0.150;2022-10-19T12:23:33;16.52;;;2.40;;
70138;SDS011;57507;43.056;0.150;2022-10-19T12:26:01;15.13;;;3.08;;
70138;SDS011;57507;43.056;0.150;2022-10-19T12:28:28;15.02;;;2.70;;
70138;SDS011;57507;43.056;0.150;2022-10-19T12:30:55;16.23;;;2.22;;
70138;SDS011;57507;43.056;0.150;2022-10-19T12:33:25;11.35;;;2.45;;
70138;SDS011;57507;43.056;0.150;2022-10-19T12:36:25;12.35;;;2.65;;
70138;SDS011;57507;43.056;0.150;2022-10-19T12:39:20;13.75;;;2.70;;
70138;SDS011;57507;43.056;0.150;2022-10-19T12:44:48;11.98;;;2.17;;
70138;SDS011;57507;43.056;0.150;2022-10-19T12:46:52;8.55;;;2.50;;
70138;SDS011;57507;43.056;0.150;2022-10-19T12:51:59;8.68;;;1.80;;
70138;SDS011;57507;43.056;0.150;2022-10-19T12:54:27;11.52;;;2.15;;
70138;SDS011;57507;43.056;0.150;2022-10-19T12:56:54;8.25;;;2.05;;
70138;SDS011;57507;43.056;0.150;2022-10-19T12:59:30;9.45;;;1.88;;
70138;SDS011;57507;43.056;0.150;2022-10-19T13:01:57;12.32;;;2.38;;
70138;SDS011;57507;43.056;0.150;2022-10-19T13:04:24;10.13;;;2.30;;
70138;SDS011;57507;43.056;0.150;2022-10-19T13:17:09;12.68;;;2.65;;
70138;SDS011;57507;43.056;0.150;2022-10-19T13:19:36;8.75;;;2.47;;
70138;SDS011;57507;43.056;0.150;2022-10-19T13:22:22;11.98;;;2.30;;
70138;SDS011;57507;43.056;0.150;2022-10-19T13:25:33;9.73;;;2.33;;
70138;SDS011;57507;43.056;0.150;2022-10-19T13:27:35;11.07;;;1.92;;
70138;SDS011;57507;43.056;0.150;2022-10-19T13:30:01;8.63;;;1.73;;
70138;SDS011;57507;43.056;0.150;2022-10-19T13:32:45;10.48;;;2.20;;
70138;SDS011;57507;43.056;0.150;2022-10-19T13:38:08;10.23;;;2.35;;
70138;SDS011;57507;43.056;0.150;2022-10-19T13:40:32;10.93;;;2.08;;
70138;SDS011;57507;43.056;0.150;2022-10-19T13:42:58;8.95;;;1.90;;
70138;SDS011;57507;43.056;0.150;2022-10-19T13:45:25;8.98;;;2.13;;
70138;SDS011;57507;43.056;0.150;2022-10-19T13:47:53;12.73;;;1.95;;
70138;SDS011;57507;43.056;0.150;2022-10-19T13:50:30;6.20;;;1.92;;
70138;SDS011;57507;43.056;0.150;2022-10-19T13:55:43;13.57;;;2.25;;
70138;SDS011;57507;43.056;0.150;2022-10-19T14:11:38;11.25;;;2.92;;
70138;SDS011;57507;43.056;0.150;2022-10-19T14:14:12;11.00;;;2.67;;
70138;SDS011;57507;43.056;0.150;2022-10-19T14:17:00;12.43;;;3.20;;
70138;SDS011;57507;43.056;0.150;2022-10-19T14:19:28;13.07;;;2.65;;
70138;SDS011;57507;43.056;0.150;2022-10-19T14:22:15;11.30;;;2.67;;
70138;SDS011;57507;43.056;0.150;2022-10-19T14:24:42;9.60;;;2.25;;
70138;SDS011;57507;43.056;0.150;2022-10-19T14:27:10;11.48;;;1.80;;
70138;SDS011;57507;43.056;0.150;2022-10-19T14:29:44;13.00;;;2.00;;
70138;SDS011;57507;43.056;0.150;2022-10-19T14:32:10;5.97;;;2.10;;
70138;SDS011;57507;43.056;0.150;2022-10-19T14:34:40;6.72;;;1.88;;
70138;SDS011;57507;43.056;0.150;2022-10-19T14:37:10;10.48;;;2.38;;
70138;SDS011;57507;43.056;0.150;2022-10-19T14:39:38;8.55;;;2.05;;
70138;SDS011;57507;43.056;0.150;2022-10-19T14:42:04;11.15;;;2.47;;
70138;SDS011;57507;43.056;0.150;2022-10-19T14:47:00;11.60;;;2.88;;
70138;SDS011;57507;43.056;0.150;2022-10-19T14:49:26;15.10;;;2.70;;
70138;SDS011;57507;43.056;0.150;2022-10-19T14:51:53;8.77;;;2.33;;
70138;SDS011;57507;43.056;0.150;2022-10-19T14:54:26;13.27;;;2.88;;
70138;SDS011;57507;43.056;0.150;2022-10-19T14:57:01;7.82;;;2.50;;
70138;SDS011;57507;43.056;0.150;2022-10-19T14:59:31;17.08;;;2.55;;
70138;SDS011;57507;43.056;0.150;2022-10-19T15:01:58;7.72;;;2.28;;
70138;SDS011;57507;43.056;0.150;2022-10-19T15:04:35;8.90;;;2.17;;
70138;SDS011;57507;43.056;0.150;2022-10-19T15:07:04;10.02;;;2.38;;
70138;SDS011;57507;43.056;0.150;2022-10-19T15:09:38;10.00;;;2.10;;
70138;SDS011;57507;43.056;0.150;2022-10-19T15:12:11;12.05;;;1.88;;
70138;SDS011;57507;43.056;0.150;2022-10-19T15:14:39;7.93;;;1.88;;
70138;SDS011;57507;43.056;0.150;2022-10-19T15:17:19;9.35;;;2.45;;
70138;SDS011;57507;43.056;0.150;2022-10-19T15:19:46;7.65;;;1.98;;
70138;SDS011;57507;43.056;0.150;2022-10-19T15:22:19;5.63;;;1.33;;
70138;SDS011;57507;43.056;0.150;2022-10-19T15:27:42;7.15;;;2.35;;
70138;SDS011;57507;43.056;0.150;2022-10-19T15:32:44;10.68;;;1.77;;
70138;SDS011;57507;43.056;0.150;2022-10-19T15:35:32;7.50;;;1.90;;
70138;SDS011;57507;43.056;0.150;2022-10-19T15:40:42;8.30;;;1.75;;
70138;SDS011;57507;43.056;0.150;2022-10-19T15:45:59;9.75;;;2.10;;
70138;SDS011;57507;43.056;0.150;2022-10-19T15:50:52;18.00;;;3.92;;
70138;SDS011;57507;43.056;0.150;2022-10-19T15:53:19;11.75;;;3.95;;
70138;SDS011;57507;43.056;0.150;2022-10-19T15:55:45;13.85;;;3.22;;
70138;SDS011;57507;43.056;0.150;2022-10-19T15:58:11;8.63;;;2.15;;
70138;SDS011;57507;43.056;0.150;2022-10-19T16:00:39;12.15;;;2.55;;
70138;SDS011;57507;43.056;0.150;2022-10-19T16:03:05;12.30;;;2.80;;
70138;SDS011;57507;43.056;0.150;2022-10-19T16:05:32;7.68;;;2.05;;
70138;SDS011;57507;43.056;0.150;2022-10-19T16:07:59;10.13;;;2.00;;
70138;SDS011;57507;43.056;0.150;2022-10-19T16:10:26;6.68;;;1.98;;
70138;SDS011;57507;43.056;0.150;2022-10-19T16:12:52;7.25;;;1.92;;
70138;SDS011;57507;43.056;0.150;2022-10-19T16:15:19;8.65;;;1.85;;
70138;SDS011;57507;43.056;0.150;2022-10-19T16:17:49;9.20;;;2.10;;
70138;SDS011;57507;43.056;0.150;2022-10-19T16:20:15;8.63;;;1.80;;
70138;SDS011;57507;43.056;0.150;2022-10-19T16:22:42;10.00;;;1.77;;
70138;SDS011;57507;43.056;0.150;2022-10-19T16:25:09;10.65;;;2.15;;
70138;SDS011;57507;43.056;0.150;2022-10-19T16:27:35;8.18;;;2.08;;
70138;SDS011;57507;43.056;0.150;2022-10-19T16:30:01;7.20;;;1.55;;
70138;SDS011;57507;43.056;0.150;2022-10-19T16:32:27;8.80;;;1.83;;
70138;SDS011;57507;43.056;0.150;2022-10-19T16:34:53;7.55;;;1.70;;
70138;SDS011;57507;43.056;0.150;2022-10-19T16:37:19;6.30;;;1.48;;
70138;SDS011;57507;43.056;0.150;2022-10-19T16:39:45;9.65;;;1.50;;
70138;SDS011;57507;43.056;0.150;2022-10-19T16:42:11;9.30;;;1.70;;
70138;SDS011;57507;43.056;0.150;2022-10-19T16:44:37;9.18;;;2.00;;
70138;SDS011;57507;43.056;0.150;2022-10-19T16:47:03;8.00;;;2.13;;
70138;SDS011;57507;43.056;0.150;2022-10-19T16:49:29;6.85;;;1.40;;
70138;SDS011;57507;43.056;0.150;2022-10-19T16:51:56;5.13;;;1.02;;
70138;SDS011;57507;43.056;0.150;2022-10-19T16:54:22;5.55;;;1.35;;
70138;SDS011;57507;43.056;0.150;2022-10-19T16:56:48;6.63;;;1.35;;
70138;SDS011;57507;43.056;0.150;2022-10-19T16:59:15;4.45;;;0.82;;
70138;SDS011;57507;43.056;0.150;2022-10-19T17:01:42;4.25;;;1.00;;
70138;SDS011;57507;43.056;0.150;2022-10-19T17:04:09;5.50;;;1.23;;
70138;SDS011;57507;43.056;0.150;2022-10-19T17:06:35;6.82;;;1.17;;
70138;SDS011;57507;43.056;0.150;2022-10-19T17:09:01;7.43;;;1.50;;